createdAt,value
2023-04-03T00:00:49.248Z,32.75
2023-04-03T00:01:49.280Z,32.74
2023-04-03T00:02:49.280Z,32.77
2023-04-03T00:03:49.216Z,32.77
2023-04-03T00:04:49.150Z,32.73
2023-04-03T00:05:49.141Z,32.78
2023-04-03T00:06:49.174Z,32.75
2023-04-03T00:07:49.132Z,32.77
2023-04-03T00:08:49.086Z,32.72
2023-04-03T00:09:49.062Z,32.74
2023-04-03T00:10:49.081Z,32.75
2023-04-03T00:11:49.096Z,32.74
2023-04-03T00:12:49.141Z,32.75
2023-04-03T00:13:49.028Z,32.74
2023-04-03T00:14:49.035Z,32.71
2023-04-03T00:15:49.025Z,32.74
2023-04-03T00:16:49.014Z,32.74
2023-04-03T00:17:49.050Z,32.75
2023-04-03T00:18:48.976Z,32.71
2023-04-03T00:19:48.959Z,32.71
2023-04-03T00:20:48.964Z,32.72
2023-04-03T00:21:48.928Z,32.71
2023-04-03T00:22:48.918Z,32.80
2023-04-03T00:23:48.898Z,32.72
2023-04-03T00:24:48.837Z,32.72
2023-04-03T00:25:48.837Z,32.74
2023-04-03T00:26:48.814Z,32.71
2023-04-03T00:27:48.810Z,32.77
2023-04-03T00:28:48.825Z,32.74
2023-04-03T00:29:48.792Z,32.69
2023-04-03T00:30:48.797Z,32.74
2023-04-03T00:31:48.792Z,32.74
2023-04-03T00:32:48.756Z,32.74
2023-04-03T00:33:48.744Z,32.75
2023-04-03T00:34:48.727Z,32.72
2023-04-03T00:35:48.751Z,32.75
2023-04-03T00:36:48.783Z,32.74
2023-04-03T00:37:48.674Z,32.77
2023-04-03T00:38:48.649Z,32.73
2023-04-03T00:39:48.663Z,32.68
2023-04-03T00:40:48.647Z,32.79
2023-04-03T00:41:48.608Z,32.77
2023-04-03T00:42:48.629Z,32.73
2023-04-03T00:43:48.586Z,32.71
2023-04-03T00:44:48.574Z,32.73
2023-04-03T00:45:48.541Z,32.71
2023-04-03T00:46:48.520Z,32.72
2023-04-03T00:47:48.514Z,32.73
2023-04-03T00:48:48.528Z,32.72
2023-04-03T00:49:48.473Z,32.73
2023-04-03T00:50:48.488Z,32.68
2023-04-03T00:51:48.490Z,32.71
2023-04-03T00:52:48.446Z,32.76
2023-04-03T00:53:48.404Z,32.72
2023-04-03T00:54:48.394Z,32.72
2023-04-03T00:55:48.395Z,32.73
2023-04-03T00:56:48.405Z,32.73
2023-04-03T00:57:48.372Z,32.73
2023-04-03T00:58:48.335Z,32.71
2023-04-03T00:59:48.288Z,32.72
2023-04-03T01:00:48.293Z,32.70
2023-04-03T01:01:48.299Z,32.73
2023-04-03T01:02:48.244Z,32.71
2023-04-03T01:03:48.249Z,32.70
2023-04-03T01:04:48.257Z,32.70
2023-04-03T01:05:48.207Z,32.66
2023-04-03T01:06:48.175Z,32.69
2023-04-03T01:07:48.167Z,32.68
2023-04-03T01:08:48.168Z,32.72
2023-04-03T01:09:48.147Z,32.71
2023-04-03T01:10:48.100Z,32.70
2023-04-03T01:11:48.142Z,32.70
2023-04-03T01:12:48.140Z,32.69
2023-04-03T01:13:48.098Z,32.66
2023-04-03T01:14:48.068Z,32.69
2023-04-03T01:15:48.127Z,32.64
2023-04-03T01:16:48.050Z,32.70
2023-04-03T01:17:48.052Z,32.70
2023-04-03T01:18:48.002Z,32.70
2023-04-03T01:19:48.001Z,32.70
2023-04-03T01:20:47.996Z,32.68
2023-04-03T01:21:47.951Z,32.70
2023-04-03T01:22:48.009Z,32.68
2023-04-03T01:23:47.940Z,32.68
2023-04-03T01:24:47.921Z,32.70
2023-04-03T01:25:47.929Z,32.69
2023-04-03T01:26:47.909Z,32.70
2023-04-03T01:27:47.899Z,32.66
2023-04-03T01:28:47.888Z,32.69
2023-04-03T01:29:47.880Z,32.73
2023-04-03T01:30:47.861Z,32.70
2023-04-03T01:31:47.951Z,32.71
2023-04-03T01:32:47.843Z,32.66
2023-04-03T01:33:47.813Z,32.70
2023-04-03T01:34:47.820Z,32.73
2023-04-03T01:35:47.813Z,32.69
2023-04-03T01:36:47.764Z,32.71
2023-04-03T01:37:47.744Z,32.70
2023-04-03T01:38:47.709Z,32.73
2023-04-03T01:39:47.734Z,32.70
2023-04-03T01:40:47.673Z,32.67
2023-04-03T01:41:47.690Z,32.67
2023-04-03T01:42:47.690Z,32.69
2023-04-03T01:43:47.640Z,32.69
2023-04-03T01:44:47.606Z,32.67
2023-04-03T01:45:47.740Z,32.63
2023-04-03T01:46:47.588Z,32.67
2023-04-03T01:47:47.615Z,32.73
2023-04-03T01:48:47.550Z,32.70
2023-04-03T01:49:47.531Z,32.67
2023-04-03T01:50:47.510Z,32.66
2023-04-03T01:51:47.532Z,32.64
2023-04-03T01:52:47.468Z,32.72
2023-04-03T01:53:47.459Z,32.67
2023-04-03T01:54:47.460Z,32.66
2023-04-03T01:55:47.459Z,32.70
2023-04-03T01:56:47.434Z,32.70
2023-04-03T01:57:47.420Z,32.67
2023-04-03T01:58:47.423Z,32.70
2023-04-03T01:59:47.436Z,32.66
2023-04-03T02:00:47.421Z,32.69
2023-04-03T02:01:47.354Z,32.67
2023-04-03T02:02:47.351Z,32.69
2023-04-03T02:03:47.427Z,32.63
2023-04-03T02:04:47.342Z,32.63
2023-04-03T02:05:47.320Z,32.67
2023-04-03T02:06:47.326Z,32.66
2023-04-03T02:07:47.304Z,32.67
2023-04-03T02:08:47.262Z,32.62
2023-04-03T02:09:47.263Z,32.70
2023-04-03T02:10:47.253Z,32.68
2023-04-03T02:11:47.252Z,32.66
2023-04-03T02:12:47.221Z,32.66
2023-04-03T02:13:47.190Z,32.67
2023-04-03T02:14:47.237Z,32.66
2023-04-03T02:15:47.189Z,32.64
2023-04-03T02:16:47.262Z,32.66
2023-04-03T02:17:47.201Z,32.66
2023-04-03T02:18:47.129Z,32.61
2023-04-03T02:19:47.135Z,32.68
2023-04-03T02:20:47.133Z,32.63
2023-04-03T02:21:47.114Z,32.62
2023-04-03T02:22:47.129Z,32.64
2023-04-03T02:23:47.091Z,32.70
2023-04-03T02:24:47.063Z,32.70
2023-04-03T02:25:47.092Z,32.63
2023-04-03T02:26:47.767Z,32.67
2023-04-03T02:27:47.059Z,32.68
2023-04-03T02:28:47.035Z,32.67
2023-04-03T02:29:47.008Z,32.62
2023-04-03T02:30:47.085Z,32.65
2023-04-03T02:31:47.029Z,32.58
2023-04-03T02:32:47.036Z,32.62
2023-04-03T02:33:47.001Z,32.65
2023-04-03T02:34:46.977Z,32.59
2023-04-03T02:35:46.990Z,32.65
2023-04-03T02:36:46.969Z,32.64
2023-04-03T02:37:46.957Z,32.59
2023-04-03T02:38:46.932Z,32.65
2023-04-03T02:39:46.924Z,32.67
2023-04-03T02:40:46.926Z,32.68
2023-04-03T02:41:46.917Z,32.67
2023-04-03T02:42:46.910Z,32.62
2023-04-03T02:43:46.890Z,32.59
2023-04-03T02:44:46.860Z,32.59
2023-04-03T02:45:46.887Z,32.59
2023-04-03T02:46:46.867Z,32.61
2023-04-03T02:47:46.902Z,32.64
2023-04-03T02:48:46.858Z,32.62
2023-04-03T02:49:46.879Z,32.64
2023-04-03T02:50:46.826Z,32.67
2023-04-03T02:51:46.811Z,32.62
2023-04-03T02:52:46.905Z,32.61
2023-04-03T02:53:46.821Z,32.63
2023-04-03T02:54:46.827Z,32.64
2023-04-03T02:55:46.788Z,32.62
2023-04-03T02:56:46.785Z,32.61
2023-04-03T02:57:46.781Z,32.59
2023-04-03T02:58:46.780Z,32.61
2023-04-03T02:59:46.798Z,32.59
2023-04-03T03:00:46.761Z,32.55
2023-04-03T03:01:46.861Z,32.58
2023-04-03T03:02:46.760Z,32.62
2023-04-03T03:03:46.718Z,32.61
2023-04-03T03:04:46.720Z,32.60
2023-04-03T03:05:46.729Z,32.58
2023-04-03T03:06:46.716Z,32.62
2023-04-03T03:07:46.685Z,32.59
2023-04-03T03:08:46.699Z,32.64
2023-04-03T03:09:46.660Z,32.62
2023-04-03T03:10:46.675Z,32.59
2023-04-03T03:11:46.683Z,32.61
2023-04-03T03:12:46.685Z,32.58
2023-04-03T03:13:46.661Z,32.57
2023-04-03T03:14:46.620Z,32.61
2023-04-03T03:15:46.635Z,32.61
2023-04-03T03:16:46.643Z,32.55
2023-04-03T03:17:46.657Z,32.59
2023-04-03T03:18:46.629Z,32.59
2023-04-03T03:19:46.678Z,32.58
2023-04-03T03:20:46.601Z,32.58
2023-04-03T03:21:46.595Z,32.55
2023-04-03T03:22:46.617Z,32.55
2023-04-03T03:23:46.624Z,32.62
2023-04-03T03:24:46.596Z,32.62
2023-04-03T03:25:46.607Z,32.61
2023-04-03T03:26:46.572Z,32.59
2023-04-03T03:27:46.786Z,32.56
2023-04-03T03:28:46.584Z,32.58
2023-04-03T03:29:46.560Z,32.59
2023-04-03T03:30:46.568Z,32.55
2023-04-03T03:31:46.595Z,32.56
2023-04-03T03:32:46.642Z,32.55
2023-04-03T03:33:46.541Z,32.52
2023-04-03T03:34:46.553Z,32.61
2023-04-03T03:35:46.599Z,32.56
2023-04-03T03:36:46.534Z,32.55
2023-04-03T03:37:46.538Z,32.56
2023-04-03T03:38:46.548Z,32.59
2023-04-03T03:39:46.559Z,32.56
2023-04-03T03:40:46.536Z,32.53
2023-04-03T03:41:46.531Z,32.58
2023-04-03T03:42:46.544Z,32.53
2023-04-03T03:43:46.526Z,32.55
2023-04-03T03:44:46.537Z,32.55
2023-04-03T03:45:46.521Z,32.51
2023-04-03T03:46:46.575Z,32.56
2023-04-03T03:47:46.588Z,32.55
2023-04-03T03:48:46.513Z,32.52
2023-04-03T03:49:46.487Z,32.59
2023-04-03T03:50:46.502Z,32.55
2023-04-03T03:51:46.493Z,32.52
2023-04-03T03:52:46.517Z,32.53
2023-04-03T03:53:46.468Z,32.53
2023-04-03T03:54:46.476Z,32.52
2023-04-03T03:55:46.475Z,32.59
2023-04-03T03:56:46.569Z,32.56
2023-04-03T03:57:46.477Z,32.54
2023-04-03T03:58:46.478Z,32.50
2023-04-03T03:59:46.486Z,32.55
2023-04-03T04:00:46.494Z,32.56
2023-04-03T04:01:46.481Z,32.56
2023-04-03T04:02:46.519Z,32.57
2023-04-03T04:03:46.591Z,32.56
2023-04-03T04:04:46.481Z,32.47
2023-04-03T04:05:46.465Z,32.55
2023-04-03T04:06:46.466Z,32.56
2023-04-03T04:07:46.453Z,32.51
2023-04-03T04:08:46.455Z,32.53
2023-04-03T04:09:46.431Z,32.52
2023-04-03T04:10:46.476Z,32.49
2023-04-03T04:11:46.465Z,32.52
2023-04-03T04:12:46.467Z,32.50
2023-04-03T04:13:46.459Z,32.55
2023-04-03T04:14:46.431Z,32.55
2023-04-03T04:15:46.459Z,32.58
2023-04-03T04:16:46.471Z,32.52
2023-04-03T04:17:46.514Z,32.53
2023-04-03T04:18:46.452Z,32.53
2023-04-03T04:19:46.457Z,32.53
2023-04-03T04:20:46.474Z,32.52
2023-04-03T04:21:46.435Z,32.48
2023-04-03T04:22:46.461Z,32.51
2023-04-03T04:23:46.459Z,32.48
2023-04-03T04:24:46.443Z,32.48
2023-04-03T04:25:46.480Z,32.51
2023-04-03T04:26:46.469Z,32.49
2023-04-03T04:27:46.437Z,32.51
2023-04-03T04:28:48.367Z,32.52
2023-04-03T04:29:46.431Z,32.48
2023-04-03T04:30:46.466Z,32.47
2023-04-03T04:31:46.457Z,32.47
2023-04-03T04:32:46.502Z,32.54
2023-04-03T04:33:46.439Z,32.46
2023-04-03T04:34:46.500Z,32.47
2023-04-03T04:35:46.472Z,32.48
2023-04-03T04:36:46.525Z,32.48
2023-04-03T04:37:46.487Z,32.51
2023-04-03T04:38:46.453Z,32.48
2023-04-03T04:39:46.440Z,32.48
2023-04-03T04:40:46.464Z,32.48
2023-04-03T04:41:46.442Z,32.50
2023-04-03T04:42:46.455Z,32.51
2023-04-03T04:43:46.424Z,32.47
2023-04-03T04:44:46.432Z,32.48
2023-04-03T04:45:46.489Z,32.50
2023-04-03T04:46:46.467Z,32.44
2023-04-03T04:47:46.500Z,32.48
2023-04-03T04:48:46.425Z,32.53
2023-04-03T04:49:46.406Z,32.47
2023-04-03T04:50:46.435Z,32.46
2023-04-03T04:51:51.927Z,32.48
2023-04-03T04:52:47.437Z,32.44
2023-04-03T04:53:46.383Z,32.41
2023-04-03T04:54:46.347Z,32.42
2023-04-03T04:55:46.319Z,32.48
2023-04-03T04:56:46.317Z,32.47
2023-04-03T04:57:46.281Z,32.51
2023-04-03T04:58:46.283Z,32.44
2023-04-03T04:59:46.252Z,32.46
2023-04-03T05:00:46.224Z,32.44
2023-04-03T05:01:46.243Z,32.44
2023-04-03T05:02:46.216Z,32.44
2023-04-03T05:03:46.146Z,32.42
2023-04-03T05:04:46.138Z,32.48
2023-04-03T05:05:46.077Z,32.41
2023-04-03T05:06:46.068Z,32.43
2023-04-03T05:07:46.030Z,32.42
2023-04-03T05:08:46.022Z,32.43
2023-04-03T05:09:45.977Z,32.41
2023-04-03T05:10:45.943Z,32.41
2023-04-03T05:11:45.925Z,32.38
2023-04-03T05:12:45.896Z,32.43
2023-04-03T05:13:45.861Z,32.43
2023-04-03T05:14:45.851Z,32.41
2023-04-03T05:15:45.843Z,32.37
2023-04-03T05:16:45.820Z,32.43
2023-04-03T05:17:45.838Z,32.39
2023-04-03T05:18:45.799Z,32.36
2023-04-03T05:19:45.818Z,32.39
2023-04-03T05:20:45.799Z,32.36
2023-04-03T05:21:45.809Z,32.37
2023-04-03T05:22:45.799Z,32.36
2023-04-03T05:23:45.781Z,32.37
2023-04-03T05:24:45.781Z,32.36
2023-04-03T05:25:45.806Z,32.33
2023-04-03T05:26:45.765Z,32.36
2023-04-03T05:27:45.754Z,32.36
2023-04-03T05:28:45.752Z,32.33
2023-04-03T05:29:45.770Z,32.32
2023-04-03T05:30:45.749Z,32.29
2023-04-03T05:31:45.743Z,32.33
2023-04-03T05:32:45.791Z,32.32
2023-04-03T05:33:45.752Z,32.33
2023-04-03T05:34:45.718Z,32.26
2023-04-03T05:35:45.753Z,32.30
2023-04-03T05:36:45.722Z,32.29
2023-04-03T05:37:45.742Z,32.24
2023-04-03T05:38:45.712Z,32.29
2023-04-03T05:39:45.719Z,32.29
2023-04-03T05:40:45.727Z,32.30
2023-04-03T05:41:45.745Z,32.25
2023-04-03T05:42:45.725Z,32.30
2023-04-03T05:43:45.720Z,32.24
2023-04-03T05:44:45.737Z,32.32
2023-04-03T05:45:46.925Z,32.30
2023-04-03T05:46:45.719Z,32.27
2023-04-03T05:47:45.728Z,32.25
2023-04-03T05:48:45.713Z,32.27
2023-04-03T05:49:45.728Z,32.29
2023-04-03T05:50:45.667Z,32.20
2023-04-03T05:51:45.671Z,32.27
2023-04-03T05:52:45.710Z,32.24
2023-04-03T05:53:45.674Z,32.20
2023-04-03T05:54:45.677Z,32.23
2023-04-03T05:55:45.685Z,32.24
2023-04-03T05:56:45.663Z,32.22
2023-04-03T05:57:45.662Z,32.20
2023-04-03T05:58:45.644Z,32.22
2023-04-03T05:59:45.649Z,32.19
2023-04-03T06:00:45.647Z,32.22
2023-04-03T06:01:45.666Z,32.16
2023-04-03T06:02:45.711Z,32.15
2023-04-03T06:03:45.730Z,32.15
2023-04-03T06:04:45.764Z,32.12
2023-04-03T06:05:45.634Z,32.19
2023-04-03T06:06:45.616Z,32.16
2023-04-03T06:07:45.640Z,32.16
2023-04-03T06:08:45.618Z,32.13
2023-04-03T06:09:45.626Z,32.15
2023-04-03T06:10:45.625Z,32.18
2023-04-03T06:11:45.623Z,32.13
2023-04-03T06:12:45.597Z,32.13
2023-04-03T06:13:45.633Z,32.12
2023-04-03T06:14:45.611Z,32.12
2023-04-03T06:15:45.592Z,32.10
2023-04-03T06:16:45.607Z,32.09
2023-04-03T06:17:45.636Z,32.09
2023-04-03T06:18:45.602Z,32.10
2023-04-03T06:19:45.597Z,32.08
2023-04-03T06:20:45.579Z,32.06
2023-04-03T06:21:45.628Z,32.06
2023-04-03T06:22:45.603Z,32.08
2023-04-03T06:23:45.597Z,32.02
2023-04-03T06:24:45.577Z,32.02
2023-04-03T06:25:45.581Z,32.05
2023-04-03T06:26:45.591Z,32.05
2023-04-03T06:27:45.583Z,32.04
2023-04-03T06:28:45.547Z,32.03
2023-04-03T06:29:45.554Z,32.05
2023-04-03T06:30:45.561Z,32.05
2023-04-03T06:31:45.553Z,31.99
2023-04-03T06:32:45.576Z,32.08
2023-04-03T06:33:45.540Z,32.01
2023-04-03T06:34:45.548Z,32.02
2023-04-03T06:35:45.577Z,32.02
2023-04-03T06:36:45.532Z,31.98
2023-04-03T06:37:45.533Z,32.02
2023-04-03T06:38:45.547Z,32.01
2023-04-03T06:40:31.064Z,32.02
2023-04-03T06:41:30.980Z,32.02
2023-04-03T06:42:30.970Z,32.02
2023-04-03T06:43:32.643Z,32.04
2023-04-03T06:44:30.927Z,31.99
2023-04-03T06:45:30.921Z,32.01
2023-04-03T06:46:30.920Z,31.98
2023-04-03T06:47:30.954Z,32.02
2023-04-03T06:48:30.880Z,31.95
2023-04-03T06:49:30.904Z,32.02
2023-04-03T06:50:30.848Z,31.92
2023-04-03T06:51:30.847Z,31.99
2023-04-03T06:52:30.887Z,31.95
2023-04-03T06:53:30.822Z,31.95
2023-04-03T06:54:30.778Z,31.94
2023-04-03T06:55:30.801Z,31.95
2023-04-03T06:56:30.771Z,31.94
2023-04-03T06:57:30.799Z,31.94
2023-04-03T06:58:30.710Z,31.95
2023-04-03T06:59:30.715Z,31.92
2023-04-03T07:00:30.695Z,31.91
2023-04-03T07:01:30.715Z,31.94
2023-04-03T07:02:30.716Z,31.95
2023-04-03T07:03:30.637Z,31.91
2023-04-03T07:04:30.652Z,31.94
2023-04-03T07:05:30.621Z,31.95
2023-04-03T07:06:30.830Z,31.94
2023-04-03T07:07:30.565Z,31.91
2023-04-03T07:08:30.546Z,31.91
2023-04-03T07:09:30.551Z,31.96
2023-04-03T07:10:30.524Z,31.91
2023-04-03T07:11:30.510Z,31.92
2023-04-03T07:12:30.503Z,31.91
2023-04-03T07:13:30.501Z,31.94
2023-04-03T07:14:30.451Z,31.91
2023-04-03T07:15:30.460Z,31.91
2023-04-03T07:16:30.586Z,31.90
2023-04-03T07:17:30.468Z,31.91
2023-04-03T07:18:30.395Z,31.93
2023-04-03T07:19:30.414Z,31.87
2023-04-03T07:20:30.392Z,31.90
2023-04-03T07:21:30.405Z,31.86
2023-04-03T07:22:30.349Z,31.86
2023-04-03T07:23:30.331Z,31.88
2023-04-03T07:24:30.336Z,31.88
2023-04-03T07:25:30.320Z,31.82
2023-04-03T07:26:30.274Z,31.84
2023-04-03T07:27:30.285Z,31.84
2023-04-03T07:28:30.237Z,31.81
2023-04-03T07:29:30.220Z,31.82
2023-04-03T07:30:30.209Z,31.81
2023-04-03T07:31:30.229Z,31.81
2023-04-03T07:32:30.213Z,31.83
2023-04-03T07:33:30.180Z,31.78
2023-04-03T07:34:30.158Z,31.83
2023-04-03T07:35:30.120Z,31.81
2023-04-03T07:36:30.112Z,31.80
2023-04-03T07:37:30.110Z,31.76
2023-04-03T07:38:30.102Z,31.76
2023-04-03T07:39:30.082Z,31.78
2023-04-03T07:40:30.038Z,31.78
2023-04-03T07:41:30.043Z,31.80
2023-04-03T07:42:30.031Z,31.78
2023-04-03T07:43:30.014Z,31.71
2023-04-03T07:44:30.020Z,31.76
2023-04-03T07:45:29.972Z,31.74
2023-04-03T07:46:29.964Z,31.70
2023-04-03T07:47:29.999Z,31.72
2023-04-03T07:48:29.904Z,31.77
2023-04-03T07:49:29.885Z,31.77
2023-04-03T07:50:29.893Z,31.76
2023-04-03T07:51:29.853Z,31.70
2023-04-03T07:52:29.841Z,31.74
2023-04-03T07:53:29.812Z,31.71
2023-04-03T07:54:29.811Z,31.74
2023-04-03T07:55:29.788Z,31.76
2023-04-03T07:56:29.885Z,31.73
2023-04-03T07:57:29.767Z,31.74
2023-04-03T07:58:29.697Z,31.73
2023-04-03T07:59:29.691Z,31.74
2023-04-03T08:00:29.656Z,31.70
2023-04-03T08:01:29.614Z,31.67
2023-04-03T08:02:29.666Z,31.68
2023-04-03T08:03:29.752Z,31.61
2023-04-03T08:04:29.740Z,31.67
2023-04-03T08:05:29.543Z,31.66
2023-04-03T08:06:42.113Z,31.64
2023-04-03T08:07:30.520Z,31.64
2023-04-03T08:08:29.474Z,31.67
2023-04-03T08:09:29.474Z,31.70
2023-04-03T08:10:29.454Z,31.70
2023-04-03T08:11:29.407Z,31.70
2023-04-03T08:12:29.430Z,31.67
2023-04-03T08:13:29.389Z,31.66
2023-04-03T08:14:29.381Z,31.63
2023-04-03T08:15:29.348Z,31.65
2023-04-03T08:16:29.383Z,31.66
2023-04-03T08:17:29.390Z,31.62
2023-04-03T08:18:29.303Z,31.59
2023-04-03T08:19:29.243Z,31.62
2023-04-03T08:20:29.270Z,31.60
2023-04-03T08:21:29.226Z,31.59
2023-04-03T08:22:29.214Z,31.62
2023-04-03T08:23:29.145Z,31.57
2023-04-03T08:24:29.155Z,31.53
2023-04-03T08:25:29.142Z,31.50
2023-04-03T08:26:29.131Z,31.56
2023-04-03T08:27:29.127Z,31.50
2023-04-03T08:28:29.159Z,31.53
2023-04-03T08:29:29.069Z,31.48
2023-04-03T08:30:29.063Z,31.46
2023-04-03T08:31:29.111Z,31.45
2023-04-03T08:32:29.059Z,31.48
2023-04-03T08:33:29.110Z,31.45
2023-04-03T08:34:29.022Z,31.46
2023-04-03T08:35:29.009Z,31.43
2023-04-03T08:36:29.006Z,31.37
2023-04-03T08:37:28.982Z,31.43
2023-04-03T08:38:28.967Z,31.39
2023-04-03T08:39:28.937Z,31.48
2023-04-03T08:40:28.896Z,31.45
2023-04-03T08:41:28.863Z,31.39
2023-04-03T08:42:28.889Z,31.42
2023-04-03T08:43:28.839Z,31.45
2023-04-03T08:44:28.945Z,31.41
2023-04-03T08:45:28.839Z,31.38
2023-04-03T08:46:28.851Z,31.35
2023-04-03T08:47:28.850Z,31.35
2023-04-03T08:48:28.891Z,31.38
2023-04-03T08:49:28.939Z,31.32
2023-04-03T08:50:29.397Z,31.34
2023-04-03T08:51:28.926Z,31.38
2023-04-03T08:52:28.903Z,31.34
2023-04-03T08:53:28.930Z,31.34
2023-04-03T08:54:28.889Z,31.34
2023-04-03T08:55:28.890Z,31.28
2023-04-03T08:56:28.909Z,31.33
2023-04-03T08:57:28.988Z,31.33
2023-04-03T08:58:28.881Z,31.33
2023-04-03T08:59:28.851Z,31.29
2023-04-03T09:00:28.954Z,31.27
2023-04-03T09:01:28.885Z,31.25
2023-04-03T09:02:28.862Z,31.28
2023-04-03T09:03:28.896Z,31.29
2023-04-03T09:04:28.856Z,31.27
2023-04-03T09:05:28.830Z,31.25
2023-04-03T09:06:28.857Z,31.29
2023-04-03T09:07:28.877Z,31.27
2023-04-03T09:08:28.895Z,31.30
2023-04-03T09:09:28.927Z,31.25
2023-04-03T09:10:28.875Z,31.31
2023-04-03T09:11:29.747Z,31.30
2023-04-03T09:12:28.955Z,31.25
2023-04-03T09:13:29.246Z,31.26
2023-04-03T09:14:28.941Z,31.20
2023-04-03T09:15:38.516Z,31.29
2023-04-03T09:16:30.138Z,31.22
2023-04-03T09:17:28.958Z,31.22
2023-04-03T09:18:28.944Z,31.21
2023-04-03T09:19:28.913Z,31.21
2023-04-03T09:20:28.896Z,31.20
2023-04-03T09:21:28.885Z,31.16
2023-04-03T09:22:29.200Z,31.19
2023-04-03T09:23:29.253Z,31.19
2023-04-03T09:24:28.818Z,31.20
2023-04-03T09:25:29.976Z,31.19
2023-04-03T09:26:28.788Z,31.17
2023-04-03T09:27:28.892Z,31.17
2023-04-03T09:28:29.324Z,31.17
2023-04-03T09:29:29.032Z,31.16
2023-04-03T09:30:29.787Z,31.16
2023-04-03T09:31:29.106Z,31.18
2023-04-03T09:32:29.247Z,31.16
2023-04-03T09:33:29.219Z,31.21
2023-04-03T09:34:29.310Z,31.16
2023-04-03T09:35:36.220Z,31.17
2023-04-03T09:36:30.405Z,31.10
2023-04-03T09:37:29.340Z,31.20
2023-04-03T09:38:29.339Z,31.17
2023-04-03T09:39:29.365Z,31.19
2023-04-03T09:40:29.339Z,31.16
2023-04-03T09:42:23.577Z,31.20
2023-04-03T09:43:23.566Z,31.17
2023-04-03T09:44:23.547Z,31.14
2023-04-03T09:45:23.654Z,31.18
2023-04-03T09:46:23.596Z,31.16
2023-04-03T09:47:23.542Z,31.23
2023-04-03T09:48:23.690Z,31.19
2023-04-03T09:49:23.558Z,31.18
2023-04-03T09:50:23.537Z,31.20
2023-04-03T09:51:23.528Z,31.20
2023-04-03T09:52:23.532Z,31.18
2023-04-03T09:53:23.535Z,31.17
2023-04-03T09:54:23.547Z,31.17
2023-04-03T09:55:23.508Z,31.18
2023-04-03T09:56:23.563Z,31.23
2023-04-03T09:57:23.544Z,31.20
2023-04-03T09:58:23.511Z,31.20
2023-04-03T09:59:23.478Z,31.20
2023-04-03T10:00:23.482Z,31.20
2023-04-03T10:01:23.484Z,31.20
2023-04-03T10:02:23.542Z,31.18
2023-04-03T10:03:23.497Z,31.18
2023-04-03T10:04:23.624Z,31.18
2023-04-03T10:05:23.537Z,31.14
2023-04-03T10:06:23.484Z,31.17
2023-04-03T10:07:23.478Z,31.20
2023-04-03T10:08:23.481Z,31.18
2023-04-03T10:09:23.632Z,31.24
2023-04-03T10:10:24.506Z,31.24
2023-04-03T10:11:23.513Z,31.26
2023-04-03T10:12:23.516Z,31.20
2023-04-03T10:13:23.546Z,31.15
2023-04-03T10:14:23.527Z,31.21
2023-04-03T10:15:23.532Z,31.14
2023-04-03T10:16:23.619Z,31.20
2023-04-03T10:17:23.627Z,31.17
2023-04-03T10:18:24.551Z,31.18
2023-04-03T10:19:23.537Z,31.20
2023-04-03T10:20:24.380Z,31.16
2023-04-03T10:21:27.406Z,31.20
2023-04-03T10:22:23.702Z,31.16
2023-04-03T10:23:23.725Z,31.17
2023-04-03T10:24:23.736Z,31.17
2023-04-03T10:25:23.706Z,31.13
2023-04-03T10:26:23.709Z,31.17
2023-04-03T10:27:23.743Z,31.11
2023-04-03T10:28:23.782Z,31.16
2023-04-03T10:29:23.731Z,31.15
2023-04-03T10:30:23.756Z,31.10
2023-04-03T10:31:23.802Z,31.10
2023-04-03T10:32:23.821Z,31.08
2023-04-03T10:33:23.765Z,31.11
2023-04-03T10:34:23.799Z,31.12
2023-04-03T10:35:23.791Z,31.06
2023-04-03T10:36:23.873Z,31.12
2023-04-03T10:37:23.805Z,31.07
2023-04-03T10:38:23.819Z,31.07
2023-04-03T10:39:23.833Z,31.06
2023-04-03T10:40:23.850Z,31.06
2023-04-03T10:41:23.860Z,31.06
2023-04-03T10:42:23.864Z,31.09
2023-04-03T10:43:23.886Z,31.06
2023-04-03T10:44:23.874Z,31.03
2023-04-03T10:45:23.880Z,31.06
2023-04-03T10:46:23.889Z,31.07
2023-04-03T10:47:23.885Z,31.03
2023-04-03T10:48:23.935Z,31.06
2023-04-03T10:49:23.978Z,31.02
2023-04-03T10:50:24.020Z,31.02
2023-04-03T10:51:24.083Z,30.99
2023-04-03T10:52:24.258Z,31.03
2023-04-03T10:53:24.220Z,31.02
2023-04-03T10:54:24.302Z,31.02
2023-04-03T10:55:24.354Z,30.99
2023-04-03T10:56:24.414Z,31.01
2023-04-03T10:57:24.519Z,30.96
2023-04-03T10:58:24.528Z,30.97
2023-04-03T10:59:24.597Z,31.01
2023-04-03T11:00:24.696Z,30.99
2023-04-03T11:01:24.709Z,31.01
2023-04-03T11:02:24.835Z,31.01
2023-04-03T11:03:24.952Z,31.01
2023-04-03T11:04:24.911Z,30.92
2023-04-03T11:05:24.958Z,30.95
2023-04-03T11:06:25.002Z,30.94
2023-04-03T11:07:25.075Z,30.96
2023-04-03T11:08:25.255Z,30.93
2023-04-03T11:09:25.190Z,30.95
2023-04-03T11:10:25.253Z,30.98
2023-04-03T11:11:25.306Z,30.93
2023-04-03T11:12:25.334Z,30.95
2023-04-03T11:13:25.410Z,30.95
2023-04-03T11:14:25.503Z,30.98
2023-04-03T11:15:25.517Z,30.92
2023-04-03T11:16:25.643Z,30.95
2023-04-03T11:17:25.728Z,30.92
2023-04-03T11:18:25.745Z,30.92
2023-04-03T11:19:25.790Z,30.97
2023-04-03T11:20:25.867Z,30.89
2023-04-03T11:21:25.884Z,30.94
2023-04-03T11:22:25.970Z,30.95
2023-04-03T11:23:28.316Z,30.94
2023-04-03T11:24:26.121Z,30.91
2023-04-03T11:25:26.056Z,30.89
2023-04-03T11:26:26.040Z,30.92
2023-04-03T11:27:26.052Z,30.92
2023-04-03T11:28:26.073Z,30.88
2023-04-03T11:29:35.101Z,30.98
2023-04-03T11:30:27.075Z,30.92
2023-04-03T11:31:26.066Z,30.92
2023-04-03T11:32:26.104Z,30.92
2023-04-03T11:33:26.087Z,30.94
2023-04-03T11:34:26.073Z,30.92
2023-04-03T11:35:26.084Z,30.92
2023-04-03T11:36:31.584Z,30.94
2023-04-03T11:37:27.103Z,30.95
2023-04-03T11:38:26.128Z,30.94
2023-04-03T11:39:26.100Z,30.89
2023-04-03T11:40:26.189Z,30.94
2023-04-03T11:41:26.096Z,30.96
2023-04-03T11:42:26.171Z,30.89
2023-04-03T11:43:26.124Z,30.94
2023-04-03T11:44:26.165Z,30.91
2023-04-03T11:45:26.190Z,30.91
2023-04-03T11:46:26.233Z,30.94
2023-04-03T11:47:26.178Z,30.96
2023-04-03T11:48:26.299Z,30.92
2023-04-03T11:49:26.293Z,30.89
2023-04-03T11:50:26.344Z,30.91
2023-04-03T11:51:26.428Z,30.92
2023-04-03T11:52:26.460Z,30.86
2023-04-03T11:53:26.537Z,30.94
2023-04-03T11:54:32.438Z,30.94
2023-04-03T11:55:27.591Z,30.91
2023-04-03T11:56:26.688Z,30.88
2023-04-03T11:57:26.662Z,30.89
2023-04-03T11:58:26.616Z,30.92
2023-04-03T11:59:26.611Z,30.91
2023-04-03T12:00:26.622Z,30.89
2023-04-03T12:01:27.220Z,30.89
2023-04-03T12:02:26.698Z,30.88
2023-04-03T12:03:26.807Z,30.86
2023-04-03T12:04:26.769Z,30.85
2023-04-03T12:05:26.676Z,30.88
2023-04-03T12:06:26.727Z,30.82
2023-04-03T12:07:26.751Z,30.87
2023-04-03T12:08:26.862Z,30.89
2023-04-03T12:09:26.892Z,30.88
2023-04-03T12:10:32.156Z,30.86
2023-04-03T12:11:27.948Z,30.86
2023-04-03T12:12:27.042Z,30.89
2023-04-03T12:13:26.954Z,30.89
2023-04-03T12:14:26.952Z,30.86
2023-04-03T12:15:26.958Z,30.89
2023-04-03T12:16:27.027Z,30.89
2023-04-03T12:17:27.022Z,30.87
2023-04-03T12:18:27.009Z,30.91
2023-04-03T12:19:41.089Z,30.91
2023-04-03T12:20:27.999Z,30.89
2023-04-03T12:21:26.989Z,30.85
2023-04-03T12:22:27.014Z,30.87
2023-04-03T12:23:27.035Z,30.86
2023-04-03T12:24:27.050Z,30.86
2023-04-03T12:25:27.015Z,30.88
2023-04-03T12:26:32.381Z,30.86
2023-04-03T12:27:28.036Z,30.85
2023-04-03T12:28:27.261Z,30.86
2023-04-03T12:29:27.098Z,30.89
2023-04-03T12:30:27.075Z,30.86
2023-04-03T12:31:27.186Z,30.86
2023-04-03T12:32:27.107Z,30.91
2023-04-03T12:33:27.156Z,30.87
2023-04-03T12:34:27.098Z,30.88
2023-04-03T12:35:27.152Z,30.86
2023-04-03T12:36:27.142Z,30.89
2023-04-03T12:37:27.123Z,30.83
2023-04-03T12:38:27.144Z,30.85
2023-04-03T12:39:27.223Z,30.86
2023-04-03T12:40:27.293Z,30.89
2023-04-03T12:41:27.357Z,30.83
2023-04-03T12:42:27.380Z,30.89
2023-04-03T12:43:27.474Z,30.85
2023-04-03T12:44:27.624Z,30.85
2023-04-03T12:45:27.589Z,30.87
2023-04-03T12:46:27.745Z,30.87
2023-04-03T12:47:27.694Z,30.90
2023-04-03T12:48:27.729Z,30.80
2023-04-03T12:49:27.784Z,30.92
2023-04-03T12:50:27.847Z,30.90
2023-04-03T12:51:27.913Z,30.86
2023-04-03T12:52:27.973Z,30.91
2023-04-03T12:53:28.019Z,30.90
2023-04-03T12:54:28.108Z,30.89